sensor_id;sensor_type;location;lat;lon;timestamp;P1;durP1;ratioP1;P2;durP2;ratioP2
73150;SDS011;61354;50.758;6.106;2023-12-04T00:00:39;7.38;;;3.35;;
73150;SDS011;61354;50.758;6.106;2023-12-04T00:03:04;8.73;;;3.83;;
73150;SDS011;61354;50.758;6.106;2023-12-04T00:05:41;6.05;;;3.00;;
73150;SDS011;61354;50.758;6.106;2023-12-04T00:08:08;6.28;;;2.78;;
73150;SDS011;61354;50.758;6.106;2023-12-04T00:10:34;6.65;;;2.90;;
73150;SDS011;61354;50.758;6.106;2023-12-04T00:12:59;5.38;;;2.17;;
73150;SDS011;61354;50.758;6.106;2023-12-04T00:15:37;7.60;;;3.38;;
73150;SDS011;61354;50.758;6.106;2023-12-04T00:18:03;7.97;;;4.03;;
73150;SDS011;61354;50.758;6.106;2023-12-04T00:20:37;11.65;;;4.78;;
73150;SDS011;61354;50.758;6.106;2023-12-04T00:23:03;10.43;;;4.00;;
73150;SDS011;61354;50.758;6.106;2023-12-04T00:25:28;6.78;;;3.45;;
73150;SDS011;61354;50.758;6.106;2023-12-04T00:27:54;5.07;;;1.90;;
73150;SDS011;61354;50.758;6.106;2023-12-04T00:30:19;7.55;;;3.42;;
73150;SDS011;61354;50.758;6.106;2023-12-04T00:32:45;7.30;;;2.45;;
73150;SDS011;61354;50.758;6.106;2023-12-04T00:35:10;6.03;;;2.88;;
73150;SDS011;61354;50.758;6.106;2023-12-04T00:37:36;8.00;;;2.80;;
73150;SDS011;61354;50.758;6.106;2023-12-04T00:40:04;4.10;;;2.28;;
73150;SDS011;61354;50.758;6.106;2023-12-04T00:42:31;6.82;;;2.90;;
73150;SDS011;61354;50.758;6.106;2023-12-04T00:44:56;5.32;;;2.55;;
73150;SDS011;61354;50.758;6.106;2023-12-04T00:47:22;5.68;;;2.20;;
73150;SDS011;61354;50.758;6.106;2023-12-04T00:49:48;6.15;;;2.75;;
73150;SDS011;61354;50.758;6.106;2023-12-04T00:52:13;5.38;;;2.75;;
73150;SDS011;61354;50.758;6.106;2023-12-04T00:54:39;5.20;;;2.53;;
73150;SDS011;61354;50.758;6.106;2023-12-04T00:57:14;4.25;;;2.05;;
73150;SDS011;61354;50.758;6.106;2023-12-04T00:59:39;6.53;;;2.95;;
73150;SDS011;61354;50.758;6.106;2023-12-04T01:02:06;6.75;;;2.50;;
73150;SDS011;61354;50.758;6.106;2023-12-04T01:04:41;5.28;;;3.15;;
73150;SDS011;61354;50.758;6.106;2023-12-04T01:07:07;6.57;;;2.70;;
73150;SDS011;61354;50.758;6.106;2023-12-04T01:09:39;5.00;;;2.30;;
73150;SDS011;61354;50.758;6.106;2023-12-04T01:12:04;5.32;;;2.63;;
73150;SDS011;61354;50.758;6.106;2023-12-04T01:14:30;7.20;;;3.00;;
73150;SDS011;61354;50.758;6.106;2023-12-04T01:16:56;5.35;;;2.50;;
73150;SDS011;61354;50.758;6.106;2023-12-04T01:19:21;7.50;;;3.33;;
73150;SDS011;61354;50.758;6.106;2023-12-04T01:21:47;5.57;;;2.92;;
73150;SDS011;61354;50.758;6.106;2023-12-04T01:24:13;5.45;;;2.70;;
73150;SDS011;61354;50.758;6.106;2023-12-04T01:26:40;7.15;;;3.05;;
73150;SDS011;61354;50.758;6.106;2023-12-04T01:29:06;5.25;;;2.55;;
73150;SDS011;61354;50.758;6.106;2023-12-04T01:31:31;5.78;;;2.85;;
73150;SDS011;61354;50.758;6.106;2023-12-04T01:33:57;5.25;;;2.30;;
73150;SDS011;61354;50.758;6.106;2023-12-04T01:36:22;5.38;;;2.50;;
73150;SDS011;61354;50.758;6.106;2023-12-04T01:38:48;6.30;;;2.58;;
73150;SDS011;61354;50.758;6.106;2023-12-04T01:41:14;5.80;;;2.65;;
73150;SDS011;61354;50.758;6.106;2023-12-04T01:43:39;5.38;;;2.55;;
73150;SDS011;61354;50.758;6.106;2023-12-04T01:46:05;5.28;;;2.13;;
73150;SDS011;61354;50.758;6.106;2023-12-04T01:48:32;4.65;;;2.22;;
73150;SDS011;61354;50.758;6.106;2023-12-04T01:50:58;4.72;;;2.38;;
73150;SDS011;61354;50.758;6.106;2023-12-04T01:53:28;4.50;;;2.00;;
73150;SDS011;61354;50.758;6.106;2023-12-04T01:55:54;4.72;;;2.33;;
73150;SDS011;61354;50.758;6.106;2023-12-04T01:58:19;4.05;;;2.17;;
73150;SDS011;61354;50.758;6.106;2023-12-04T02:00:45;4.90;;;2.30;;
73150;SDS011;61354;50.758;6.106;2023-12-04T02:03:11;5.65;;;2.10;;
73150;SDS011;61354;50.758;6.106;2023-12-04T02:05:37;4.38;;;2.25;;
73150;SDS011;61354;50.758;6.106;2023-12-04T02:08:04;3.45;;;1.85;;
73150;SDS011;61354;50.758;6.106;2023-12-04T02:10:30;4.05;;;1.95;;
73150;SDS011;61354;50.758;6.106;2023-12-04T02:12:56;4.18;;;2.20;;
73150;SDS011;61354;50.758;6.106;2023-12-04T02:15:22;5.47;;;2.30;;
73150;SDS011;61354;50.758;6.106;2023-12-04T02:17:48;5.55;;;2.10;;
73150;SDS011;61354;50.758;6.106;2023-12-04T02:20:14;3.72;;;1.90;;
73150;SDS011;61354;50.758;6.106;2023-12-04T02:22:40;2.92;;;1.77;;
73150;SDS011;61354;50.758;6.106;2023-12-04T02:25:06;4.80;;;2.00;;
73150;SDS011;61354;50.758;6.106;2023-12-04T02:27:38;3.72;;;2.03;;
73150;SDS011;61354;50.758;6.106;2023-12-04T02:30:14;3.20;;;1.50;;
73150;SDS011;61354;50.758;6.106;2023-12-04T02:32:45;5.03;;;2.00;;
73150;SDS011;61354;50.758;6.106;2023-12-04T02:35:14;5.45;;;2.28;;
73150;SDS011;61354;50.758;6.106;2023-12-04T02:37:41;4.13;;;2.05;;
73150;SDS011;61354;50.758;6.106;2023-12-04T02:40:07;5.63;;;2.35;;
73150;SDS011;61354;50.758;6.106;2023-12-04T02:42:34;5.03;;;2.58;;
73150;SDS011;61354;50.758;6.106;2023-12-04T02:44:59;4.63;;;2.10;;
73150;SDS011;61354;50.758;6.106;2023-12-04T02:47:25;4.03;;;1.85;;
73150;SDS011;61354;50.758;6.106;2023-12-04T02:49:50;3.60;;;1.85;;
73150;SDS011;61354;50.758;6.106;2023-12-04T02:52:16;3.92;;;2.00;;
73150;SDS011;61354;50.758;6.106;2023-12-04T02:54:42;3.13;;;1.50;;
73150;SDS011;61354;50.758;6.106;2023-12-04T02:57:07;3.67;;;1.95;;
73150;SDS011;61354;50.758;6.106;2023-12-04T02:59:33;3.60;;;2.20;;
73150;SDS011;61354;50.758;6.106;2023-12-04T03:01:58;3.80;;;2.05;;
73150;SDS011;61354;50.758;6.106;2023-12-04T03:04:24;3.90;;;1.55;;
73150;SDS011;61354;50.758;6.106;2023-12-04T03:06:49;3.47;;;1.67;;
73150;SDS011;61354;50.758;6.106;2023-12-04T03:09:15;2.25;;;1.27;;
73150;SDS011;61354;50.758;6.106;2023-12-04T03:11:41;3.40;;;1.98;;
73150;SDS011;61354;50.758;6.106;2023-12-04T03:14:07;3.03;;;1.60;;
73150;SDS011;61354;50.758;6.106;2023-12-04T03:16:33;5.63;;;1.98;;
73150;SDS011;61354;50.758;6.106;2023-12-04T03:18:58;4.18;;;1.55;;
73150;SDS011;61354;50.758;6.106;2023-12-04T03:21:24;3.78;;;1.80;;
73150;SDS011;61354;50.758;6.106;2023-12-04T03:23:50;4.43;;;2.10;;
73150;SDS011;61354;50.758;6.106;2023-12-04T03:26:15;4.45;;;2.00;;
73150;SDS011;61354;50.758;6.106;2023-12-04T03:28:41;6.25;;;2.00;;
73150;SDS011;61354;50.758;6.106;2023-12-04T03:31:07;5.32;;;2.25;;
73150;SDS011;61354;50.758;6.106;2023-12-04T03:33:32;5.20;;;2.00;;
73150;SDS011;61354;50.758;6.106;2023-12-04T03:36:01;5.50;;;2.55;;
73150;SDS011;61354;50.758;6.106;2023-12-04T03:38:27;4.28;;;1.95;;
73150;SDS011;61354;50.758;6.106;2023-12-04T03:40:52;5.72;;;2.28;;
73150;SDS011;61354;50.758;6.106;2023-12-04T03:43:18;3.65;;;1.90;;
73150;SDS011;61354;50.758;6.106;2023-12-04T03:45:44;4.68;;;2.00;;
73150;SDS011;61354;50.758;6.106;2023-12-04T03:48:09;5.05;;;2.45;;
73150;SDS011;61354;50.758;6.106;2023-12-04T03:50:35;4.80;;;2.97;;
73150;SDS011;61354;50.758;6.106;2023-12-04T03:53:01;4.20;;;1.73;;
73150;SDS011;61354;50.758;6.106;2023-12-04T03:55:26;4.38;;;2.38;;
73150;SDS011;61354;50.758;6.106;2023-12-04T03:57:52;4.95;;;2.33;;
73150;SDS011;61354;50.758;6.106;2023-12-04T04:00:19;4.63;;;1.80;;
73150;SDS011;61354;50.758;6.106;2023-12-04T04:02:45;4.32;;;1.92;;
73150;SDS011;61354;50.758;6.106;2023-12-04T04:05:10;2.97;;;2.00;;
73150;SDS011;61354;50.758;6.106;2023-12-04T04:07:36;3.70;;;1.73;;
73150;SDS011;61354;50.758;6.106;2023-12-04T04:10:02;4.75;;;1.95;;
73150;SDS011;61354;50.758;6.106;2023-12-04T04:12:38;5.00;;;2.53;;
73150;SDS011;61354;50.758;6.106;2023-12-04T04:15:04;4.55;;;1.73;;
73150;SDS011;61354;50.758;6.106;2023-12-04T04:17:39;3.97;;;2.38;;
73150;SDS011;61354;50.758;6.106;2023-12-04T04:20:06;4.30;;;2.17;;
73150;SDS011;61354;50.758;6.106;2023-12-04T04:22:32;3.83;;;2.03;;
73150;SDS011;61354;50.758;6.106;2023-12-04T04:25:03;4.68;;;1.73;;
73150;SDS011;61354;50.758;6.106;2023-12-04T04:32:21;3.60;;;1.70;;
73150;SDS011;61354;50.758;6.106;2023-12-04T04:34:47;4.05;;;2.10;;
73150;SDS011;61354;50.758;6.106;2023-12-04T04:37:12;1.63;;;1.27;;
73150;SDS011;61354;50.758;6.106;2023-12-04T04:39:39;2.65;;;1.38;;
73150;SDS011;61354;50.758;6.106;2023-12-04T04:42:05;4.35;;;1.65;;
73150;SDS011;61354;50.758;6.106;2023-12-04T04:44:30;3.80;;;1.83;;
73150;SDS011;61354;50.758;6.106;2023-12-04T04:46:56;3.45;;;1.70;;
73150;SDS011;61354;50.758;6.106;2023-12-04T04:49:22;2.47;;;1.55;;
73150;SDS011;61354;50.758;6.106;2023-12-04T04:51:47;2.85;;;1.60;;
73150;SDS011;61354;50.758;6.106;2023-12-04T04:54:13;3.97;;;1.70;;
73150;SDS011;61354;50.758;6.106;2023-12-04T04:56:38;4.28;;;1.75;;
73150;SDS011;61354;50.758;6.106;2023-12-04T04:59:04;3.83;;;1.85;;
73150;SDS011;61354;50.758;6.106;2023-12-04T05:01:29;3.65;;;1.67;;
73150;SDS011;61354;50.758;6.106;2023-12-04T05:03:55;3.65;;;1.65;;
73150;SDS011;61354;50.758;6.106;2023-12-04T05:06:20;4.20;;;1.83;;
73150;SDS011;61354;50.758;6.106;2023-12-04T05:08:48;3.33;;;1.52;;
73150;SDS011;61354;50.758;6.106;2023-12-04T05:11:15;3.47;;;1.50;;
73150;SDS011;61354;50.758;6.106;2023-12-04T05:13:41;3.33;;;1.70;;
73150;SDS011;61354;50.758;6.106;2023-12-04T05:16:06;5.13;;;1.58;;
73150;SDS011;61354;50.758;6.106;2023-12-04T05:18:32;4.10;;;1.98;;
73150;SDS011;61354;50.758;6.106;2023-12-04T05:20:58;3.90;;;1.42;;
73150;SDS011;61354;50.758;6.106;2023-12-04T05:23:23;2.70;;;1.40;;
73150;SDS011;61354;50.758;6.106;2023-12-04T05:25:49;3.30;;;1.67;;
73150;SDS011;61354;50.758;6.106;2023-12-04T05:28:15;3.75;;;2.03;;
73150;SDS011;61354;50.758;6.106;2023-12-04T05:30:40;2.45;;;1.35;;
73150;SDS011;61354;50.758;6.106;2023-12-04T05:33:06;3.22;;;1.63;;
73150;SDS011;61354;50.758;6.106;2023-12-04T05:35:31;2.42;;;1.30;;
73150;SDS011;61354;50.758;6.106;2023-12-04T05:37:59;2.90;;;1.20;;
73150;SDS011;61354;50.758;6.106;2023-12-04T05:40:25;2.80;;;1.60;;
73150;SDS011;61354;50.758;6.106;2023-12-04T05:42:51;2.40;;;1.17;;
73150;SDS011;61354;50.758;6.106;2023-12-04T05:45:16;1.75;;;1.05;;
73150;SDS011;61354;50.758;6.106;2023-12-04T05:47:42;2.38;;;1.17;;
73150;SDS011;61354;50.758;6.106;2023-12-04T05:50:07;3.10;;;1.10;;
73150;SDS011;61354;50.758;6.106;2023-12-04T05:52:33;2.05;;;1.13;;
73150;SDS011;61354;50.758;6.106;2023-12-04T05:54:59;2.47;;;1.13;;
73150;SDS011;61354;50.758;6.106;2023-12-04T05:57:25;2.78;;;1.42;;
73150;SDS011;61354;50.758;6.106;2023-12-04T05:59:50;2.33;;;1.10;;
73150;SDS011;61354;50.758;6.106;2023-12-04T06:02:16;2.08;;;1.17;;
73150;SDS011;61354;50.758;6.106;2023-12-04T06:04:41;3.00;;;1.60;;
73150;SDS011;61354;50.758;6.106;2023-12-04T06:07:07;1.65;;;1.10;;
73150;SDS011;61354;50.758;6.106;2023-12-04T06:09:39;2.25;;;1.20;;
73150;SDS011;61354;50.758;6.106;2023-12-04T06:12:04;2.55;;;1.30;;
73150;SDS011;61354;50.758;6.106;2023-12-04T06:14:33;1.90;;;1.00;;
73150;SDS011;61354;50.758;6.106;2023-12-04T06:17:00;3.95;;;1.38;;
73150;SDS011;61354;50.758;6.106;2023-12-04T06:19:27;2.17;;;1.17;;
73150;SDS011;61354;50.758;6.106;2023-12-04T06:21:53;2.75;;;1.25;;
73150;SDS011;61354;50.758;6.106;2023-12-04T06:24:20;2.38;;;1.05;;
73150;SDS011;61354;50.758;6.106;2023-12-04T06:30:05;1.33;;;0.80;;
73150;SDS011;61354;50.758;6.106;2023-12-04T06:32:32;2.13;;;1.00;;
73150;SDS011;61354;50.758;6.106;2023-12-04T06:34:58;1.60;;;0.90;;
73150;SDS011;61354;50.758;6.106;2023-12-04T06:37:24;1.48;;;0.80;;
73150;SDS011;61354;50.758;6.106;2023-12-04T06:39:49;2.08;;;1.00;;
73150;SDS011;61354;50.758;6.106;2023-12-04T06:42:17;1.67;;;0.98;;
73150;SDS011;61354;50.758;6.106;2023-12-04T06:44:42;1.30;;;0.90;;
73150;SDS011;61354;50.758;6.106;2023-12-04T06:47:08;1.30;;;0.70;;
73150;SDS011;61354;50.758;6.106;2023-12-04T06:49:34;1.77;;;1.05;;
73150;SDS011;61354;50.758;6.106;2023-12-04T06:52:00;1.10;;;0.57;;
73150;SDS011;61354;50.758;6.106;2023-12-04T06:54:26;1.98;;;0.98;;
73150;SDS011;61354;50.758;6.106;2023-12-04T06:56:52;2.00;;;1.00;;
73150;SDS011;61354;50.758;6.106;2023-12-04T06:59:18;0.93;;;0.75;;
73150;SDS011;61354;50.758;6.106;2023-12-04T07:01:44;0.85;;;0.70;;
73150;SDS011;61354;50.758;6.106;2023-12-04T07:04:09;1.85;;;0.85;;
73150;SDS011;61354;50.758;6.106;2023-12-04T07:06:35;0.45;;;0.40;;
73150;SDS011;61354;50.758;6.106;2023-12-04T07:09:02;1.13;;;0.90;;
73150;SDS011;61354;50.758;6.106;2023-12-04T07:11:27;1.25;;;0.85;;
73150;SDS011;61354;50.758;6.106;2023-12-04T07:13:53;1.15;;;0.70;;
73150;SDS011;61354;50.758;6.106;2023-12-04T07:16:19;1.10;;;0.80;;
73150;SDS011;61354;50.758;6.106;2023-12-04T07:18:44;0.98;;;0.75;;
73150;SDS011;61354;50.758;6.106;2023-12-04T07:21:10;1.20;;;0.50;;
73150;SDS011;61354;50.758;6.106;2023-12-04T07:23:36;0.85;;;0.60;;
73150;SDS011;61354;50.758;6.106;2023-12-04T07:26:02;1.40;;;0.82;;
73150;SDS011;61354;50.758;6.106;2023-12-04T07:29:02;1.73;;;0.88;;
73150;SDS011;61354;50.758;6.106;2023-12-04T07:31:28;1.00;;;0.70;;
73150;SDS011;61354;50.758;6.106;2023-12-04T07:33:54;2.33;;;0.90;;
73150;SDS011;61354;50.758;6.106;2023-12-04T07:36:19;1.00;;;0.80;;
73150;SDS011;61354;50.758;6.106;2023-12-04T07:38:45;1.88;;;1.10;;
73150;SDS011;61354;50.758;6.106;2023-12-04T07:41:11;2.42;;;1.00;;
73150;SDS011;61354;50.758;6.106;2023-12-04T07:43:36;1.85;;;0.90;;
73150;SDS011;61354;50.758;6.106;2023-12-04T07:46:02;1.48;;;0.88;;
73150;SDS011;61354;50.758;6.106;2023-12-04T07:48:30;1.13;;;0.80;;
73150;SDS011;61354;50.758;6.106;2023-12-04T07:50:56;2.33;;;1.00;;
73150;SDS011;61354;50.758;6.106;2023-12-04T07:53:22;1.15;;;0.88;;
73150;SDS011;61354;50.758;6.106;2023-12-04T07:55:48;1.70;;;1.00;;
73150;SDS011;61354;50.758;6.106;2023-12-04T07:58:16;1.90;;;1.08;;
73150;SDS011;61354;50.758;6.106;2023-12-04T08:00:43;1.38;;;0.90;;
73150;SDS011;61354;50.758;6.106;2023-12-04T08:03:09;1.00;;;0.80;;
73150;SDS011;61354;50.758;6.106;2023-12-04T08:05:35;2.35;;;1.10;;
73150;SDS011;61354;50.758;6.106;2023-12-04T08:08:00;1.85;;;1.20;;
73150;SDS011;61354;50.758;6.106;2023-12-04T08:10:26;3.20;;;1.20;;
73150;SDS011;61354;50.758;6.106;2023-12-04T08:12:52;2.42;;;1.30;;
73150;SDS011;61354;50.758;6.106;2023-12-04T08:15:17;2.15;;;1.20;;
73150;SDS011;61354;50.758;6.106;2023-12-04T08:17:43;2.05;;;1.08;;
73150;SDS011;61354;50.758;6.106;2023-12-04T08:20:09;2.03;;;1.13;;
73150;SDS011;61354;50.758;6.106;2023-12-04T08:22:41;2.53;;;1.17;;
73150;SDS011;61354;50.758;6.106;2023-12-04T08:25:08;2.13;;;1.20;;
73150;SDS011;61354;50.758;6.106;2023-12-04T08:27:35;2.38;;;1.10;;
73150;SDS011;61354;50.758;6.106;2023-12-04T08:30:00;2.97;;;1.50;;
73150;SDS011;61354;50.758;6.106;2023-12-04T08:32:28;2.65;;;1.15;;
73150;SDS011;61354;50.758;6.106;2023-12-04T08:34:54;2.75;;;1.40;;
73150;SDS011;61354;50.758;6.106;2023-12-04T08:37:19;3.47;;;1.52;;
73150;SDS011;61354;50.758;6.106;2023-12-04T08:39:45;2.88;;;1.40;;
73150;SDS011;61354;50.758;6.106;2023-12-04T08:42:11;4.18;;;1.75;;
73150;SDS011;61354;50.758;6.106;2023-12-04T08:44:37;3.15;;;1.55;;
73150;SDS011;61354;50.758;6.106;2023-12-04T08:47:03;3.40;;;1.83;;
73150;SDS011;61354;50.758;6.106;2023-12-04T08:49:30;3.60;;;1.40;;
73150;SDS011;61354;50.758;6.106;2023-12-04T08:51:56;5.40;;;1.77;;
73150;SDS011;61354;50.758;6.106;2023-12-04T08:54:21;2.33;;;1.17;;
73150;SDS011;61354;50.758;6.106;2023-12-04T08:56:47;2.47;;;1.42;;
73150;SDS011;61354;50.758;6.106;2023-12-04T08:59:13;3.25;;;1.58;;
73150;SDS011;61354;50.758;6.106;2023-12-04T09:01:38;3.72;;;1.92;;
73150;SDS011;61354;50.758;6.106;2023-12-04T09:04:04;3.20;;;1.60;;
73150;SDS011;61354;50.758;6.106;2023-12-04T09:06:30;2.95;;;1.60;;
73150;SDS011;61354;50.758;6.106;2023-12-04T09:08:56;4.20;;;1.73;;
73150;SDS011;61354;50.758;6.106;2023-12-04T09:11:21;4.50;;;1.85;;
73150;SDS011;61354;50.758;6.106;2023-12-04T09:13:47;6.03;;;1.95;;
73150;SDS011;61354;50.758;6.106;2023-12-04T09:16:13;3.95;;;1.67;;
73150;SDS011;61354;50.758;6.106;2023-12-04T09:18:39;3.70;;;1.75;;
73150;SDS011;61354;50.758;6.106;2023-12-04T09:21:04;4.90;;;1.85;;
73150;SDS011;61354;50.758;6.106;2023-12-04T09:23:30;3.95;;;2.00;;
73150;SDS011;61354;50.758;6.106;2023-12-04T09:25:56;3.17;;;1.55;;
73150;SDS011;61354;50.758;6.106;2023-12-04T09:28:21;3.20;;;1.92;;
73150;SDS011;61354;50.758;6.106;2023-12-04T09:30:47;4.35;;;1.90;;
73150;SDS011;61354;50.758;6.106;2023-12-04T09:33:14;4.35;;;1.85;;
73150;SDS011;61354;50.758;6.106;2023-12-04T09:35:39;4.28;;;2.08;;
73150;SDS011;61354;50.758;6.106;2023-12-04T09:38:05;3.28;;;1.70;;
73150;SDS011;61354;50.758;6.106;2023-12-04T09:40:31;5.18;;;2.00;;
73150;SDS011;61354;50.758;6.106;2023-12-04T09:42:56;4.60;;;2.17;;
73150;SDS011;61354;50.758;6.106;2023-12-04T09:45:23;7.45;;;2.40;;
73150;SDS011;61354;50.758;6.106;2023-12-04T09:47:50;3.22;;;1.90;;
73150;SDS011;61354;50.758;6.106;2023-12-04T09:50:16;6.82;;;2.05;;
73150;SDS011;61354;50.758;6.106;2023-12-04T09:52:50;4.60;;;1.90;;
73150;SDS011;61354;50.758;6.106;2023-12-04T09:55:18;4.15;;;2.08;;
73150;SDS011;61354;50.758;6.106;2023-12-04T09:57:45;3.72;;;1.70;;
73150;SDS011;61354;50.758;6.106;2023-12-04T10:00:11;5.47;;;2.10;;
73150;SDS011;61354;50.758;6.106;2023-12-04T10:02:39;3.42;;;1.65;;
73150;SDS011;61354;50.758;6.106;2023-12-04T10:05:05;3.67;;;1.80;;
73150;SDS011;61354;50.758;6.106;2023-12-04T10:07:32;3.58;;;2.00;;
73150;SDS011;61354;50.758;6.106;2023-12-04T10:09:57;3.78;;;2.15;;
73150;SDS011;61354;50.758;6.106;2023-12-04T10:12:23;4.38;;;2.00;;
73150;SDS011;61354;50.758;6.106;2023-12-04T10:17:37;3.63;;;1.65;;
73150;SDS011;61354;50.758;6.106;2023-12-04T10:20:04;4.25;;;1.83;;
73150;SDS011;61354;50.758;6.106;2023-12-04T10:22:55;2.58;;;1.70;;
73150;SDS011;61354;50.758;6.106;2023-12-04T10:25:23;6.03;;;2.40;;
73150;SDS011;61354;50.758;6.106;2023-12-04T10:30:22;4.57;;;2.15;;
73150;SDS011;61354;50.758;6.106;2023-12-04T10:32:48;4.18;;;2.00;;
73150;SDS011;61354;50.758;6.106;2023-12-04T10:35:20;4.82;;;1.83;;
73150;SDS011;61354;50.758;6.106;2023-12-04T10:37:46;3.88;;;2.35;;
73150;SDS011;61354;50.758;6.106;2023-12-04T10:40:11;4.45;;;2.08;;
73150;SDS011;61354;50.758;6.106;2023-12-04T10:42:48;4.72;;;2.47;;
73150;SDS011;61354;50.758;6.106;2023-12-04T10:45:13;4.25;;;2.28;;
73150;SDS011;61354;50.758;6.106;2023-12-04T10:47:39;6.68;;;2.40;;
73150;SDS011;61354;50.758;6.106;2023-12-04T10:50:04;3.58;;;1.95;;
73150;SDS011;61354;50.758;6.106;2023-12-04T10:52:32;5.22;;;2.40;;
73150;SDS011;61354;50.758;6.106;2023-12-04T10:54:58;5.90;;;2.60;;
73150;SDS011;61354;50.758;6.106;2023-12-04T10:57:29;4.88;;;2.22;;
73150;SDS011;61354;50.758;6.106;2023-12-04T11:00:02;4.53;;;2.17;;
73150;SDS011;61354;50.758;6.106;2023-12-04T11:02:32;5.70;;;2.53;;
73150;SDS011;61354;50.758;6.106;2023-12-04T11:05:07;4.18;;;2.00;;
73150;SDS011;61354;50.758;6.106;2023-12-04T11:07:40;3.85;;;2.08;;
73150;SDS011;61354;50.758;6.106;2023-12-04T11:10:08;4.65;;;2.13;;
73150;SDS011;61354;50.758;6.106;2023-12-04T11:12:39;5.75;;;2.30;;
73150;SDS011;61354;50.758;6.106;2023-12-04T11:15:09;7.13;;;2.83;;
73150;SDS011;61354;50.758;6.106;2023-12-04T11:17:38;4.90;;;2.35;;
73150;SDS011;61354;50.758;6.106;2023-12-04T11:20:10;7.95;;;3.15;;
73150;SDS011;61354;50.758;6.106;2023-12-04T11:22:38;5.28;;;2.63;;
73150;SDS011;61354;50.758;6.106;2023-12-04T11:25:06;6.10;;;2.75;;
73150;SDS011;61354;50.758;6.106;2023-12-04T11:27:33;5.13;;;2.83;;
73150;SDS011;61354;50.758;6.106;2023-12-04T11:30:01;3.88;;;2.42;;
73150;SDS011;61354;50.758;6.106;2023-12-04T11:32:31;4.25;;;2.00;;
73150;SDS011;61354;50.758;6.106;2023-12-04T11:34:59;3.65;;;2.00;;
73150;SDS011;61354;50.758;6.106;2023-12-04T11:37:27;5.10;;;2.10;;
73150;SDS011;61354;50.758;6.106;2023-12-04T11:39:53;4.25;;;1.90;;
73150;SDS011;61354;50.758;6.106;2023-12-04T11:42:21;3.33;;;1.80;;
73150;SDS011;61354;50.758;6.106;2023-12-04T11:44:49;4.32;;;2.00;;
73150;SDS011;61354;50.758;6.106;2023-12-04T11:47:15;3.92;;;2.10;;
73150;SDS011;61354;50.758;6.106;2023-12-04T11:49:41;4.38;;;1.88;;
73150;SDS011;61354;50.758;6.106;2023-12-04T11:52:07;2.88;;;1.55;;
73150;SDS011;61354;50.758;6.106;2023-12-04T11:55:06;3.72;;;2.20;;
73150;SDS011;61354;50.758;6.106;2023-12-04T11:57:26;3.55;;;2.00;;
73150;SDS011;61354;50.758;6.106;2023-12-04T12:00:10;3.90;;;1.83;;
73150;SDS011;61354;50.758;6.106;2023-12-04T12:03:00;3.78;;;2.13;;
73150;SDS011;61354;50.758;6.106;2023-12-04T12:05:32;2.80;;;1.65;;
73150;SDS011;61354;50.758;6.106;2023-12-04T12:08:05;4.20;;;1.83;;
73150;SDS011;61354;50.758;6.106;2023-12-04T12:10:31;2.58;;;1.63;;
73150;SDS011;61354;50.758;6.106;2023-12-04T12:12:58;2.80;;;1.80;;
73150;SDS011;61354;50.758;6.106;2023-12-04T12:15:24;2.92;;;1.48;;
73150;SDS011;61354;50.758;6.106;2023-12-04T12:17:50;3.10;;;1.45;;
73150;SDS011;61354;50.758;6.106;2023-12-04T12:20:18;2.60;;;1.55;;
73150;SDS011;61354;50.758;6.106;2023-12-04T12:22:45;3.30;;;1.90;;
73150;SDS011;61354;50.758;6.106;2023-12-04T12:25:13;3.67;;;1.80;;
73150;SDS011;61354;50.758;6.106;2023-12-04T12:27:39;3.33;;;1.52;;
73150;SDS011;61354;50.758;6.106;2023-12-04T12:30:05;3.15;;;1.75;;
73150;SDS011;61354;50.758;6.106;2023-12-04T12:32:32;3.05;;;1.40;;
73150;SDS011;61354;50.758;6.106;2023-12-04T12:34:58;2.22;;;1.35;;
73150;SDS011;61354;50.758;6.106;2023-12-04T12:37:24;3.58;;;1.48;;
73150;SDS011;61354;50.758;6.106;2023-12-04T12:39:50;1.90;;;1.17;;
73150;SDS011;61354;50.758;6.106;2023-12-04T12:42:26;3.00;;;1.40;;
73150;SDS011;61354;50.758;6.106;2023-12-04T12:44:53;2.08;;;1.17;;
73150;SDS011;61354;50.758;6.106;2023-12-04T12:47:22;2.33;;;1.25;;
73150;SDS011;61354;50.758;6.106;2023-12-04T12:49:48;1.45;;;1.00;;
73150;SDS011;61354;50.758;6.106;2023-12-04T12:52:14;2.38;;;1.30;;
73150;SDS011;61354;50.758;6.106;2023-12-04T12:54:40;2.00;;;1.30;;
73150;SDS011;61354;50.758;6.106;2023-12-04T12:57:06;3.35;;;1.63;;
73150;SDS011;61354;50.758;6.106;2023-12-04T12:59:33;5.53;;;3.35;;
73150;SDS011;61354;50.758;6.106;2023-12-04T13:01:59;9.57;;;5.10;;
73150;SDS011;61354;50.758;6.106;2023-12-04T13:04:34;3.35;;;1.80;;
73150;SDS011;61354;50.758;6.106;2023-12-04T13:07:00;3.97;;;1.85;;
73150;SDS011;61354;50.758;6.106;2023-12-04T13:09:25;1.95;;;1.00;;
73150;SDS011;61354;50.758;6.106;2023-12-04T13:11:51;2.05;;;1.23;;
73150;SDS011;61354;50.758;6.106;2023-12-04T13:14:17;1.13;;;1.00;;
73150;SDS011;61354;50.758;6.106;2023-12-04T13:16:43;2.33;;;1.13;;
73150;SDS011;61354;50.758;6.106;2023-12-04T13:19:08;2.45;;;1.30;;
73150;SDS011;61354;50.758;6.106;2023-12-04T13:21:34;1.63;;;1.30;;
73150;SDS011;61354;50.758;6.106;2023-12-04T13:24:00;2.13;;;1.25;;
73150;SDS011;61354;50.758;6.106;2023-12-04T13:26:25;2.10;;;1.30;;
73150;SDS011;61354;50.758;6.106;2023-12-04T13:28:51;3.30;;;2.15;;
73150;SDS011;61354;50.758;6.106;2023-12-04T13:31:17;2.97;;;1.90;;
73150;SDS011;61354;50.758;6.106;2023-12-04T13:33:42;2.15;;;1.48;;
73150;SDS011;61354;50.758;6.106;2023-12-04T13:36:11;2.05;;;1.40;;
73150;SDS011;61354;50.758;6.106;2023-12-04T13:38:37;2.35;;;1.70;;
73150;SDS011;61354;50.758;6.106;2023-12-04T13:41:02;2.78;;;1.55;;
73150;SDS011;61354;50.758;6.106;2023-12-04T13:46:20;2.55;;;1.50;;
73150;SDS011;61354;50.758;6.106;2023-12-04T13:48:46;2.70;;;1.70;;
73150;SDS011;61354;50.758;6.106;2023-12-04T13:51:12;2.50;;;1.58;;
73150;SDS011;61354;50.758;6.106;2023-12-04T13:53:38;2.28;;;1.77;;
73150;SDS011;61354;50.758;6.106;2023-12-04T13:56:09;2.90;;;1.52;;
73150;SDS011;61354;50.758;6.106;2023-12-04T13:58:50;2.88;;;1.77;;
73150;SDS011;61354;50.758;6.106;2023-12-04T14:01:24;2.97;;;1.75;;
73150;SDS011;61354;50.758;6.106;2023-12-04T14:03:55;3.40;;;1.73;;
73150;SDS011;61354;50.758;6.106;2023-12-04T14:06:29;2.75;;;1.80;;
73150;SDS011;61354;50.758;6.106;2023-12-04T14:08:55;2.47;;;1.67;;
73150;SDS011;61354;50.758;6.106;2023-12-04T14:11:21;4.13;;;2.08;;
73150;SDS011;61354;50.758;6.106;2023-12-04T14:13:47;4.30;;;2.00;;
73150;SDS011;61354;50.758;6.106;2023-12-04T14:16:12;5.13;;;2.10;;
73150;SDS011;61354;50.758;6.106;2023-12-04T14:18:39;3.75;;;1.98;;
73150;SDS011;61354;50.758;6.106;2023-12-04T14:21:05;3.42;;;2.22;;
73150;SDS011;61354;50.758;6.106;2023-12-04T14:23:31;2.92;;;1.77;;
73150;SDS011;61354;50.758;6.106;2023-12-04T14:25:56;2.65;;;1.55;;
73150;SDS011;61354;50.758;6.106;2023-12-04T14:28:22;2.92;;;1.60;;
73150;SDS011;61354;50.758;6.106;2023-12-04T14:30:47;3.08;;;1.60;;
73150;SDS011;61354;50.758;6.106;2023-12-04T14:33:13;2.50;;;1.55;;
73150;SDS011;61354;50.758;6.106;2023-12-04T14:35:39;2.90;;;1.40;;
73150;SDS011;61354;50.758;6.106;2023-12-04T14:38:04;2.50;;;1.52;;
73150;SDS011;61354;50.758;6.106;2023-12-04T14:40:30;2.55;;;1.38;;
73150;SDS011;61354;50.758;6.106;2023-12-04T14:42:56;2.20;;;1.27;;
73150;SDS011;61354;50.758;6.106;2023-12-04T14:45:22;2.72;;;1.60;;
73150;SDS011;61354;50.758;6.106;2023-12-04T14:47:47;2.67;;;1.67;;
73150;SDS011;61354;50.758;6.106;2023-12-04T14:50:15;1.90;;;1.38;;
73150;SDS011;61354;50.758;6.106;2023-12-04T14:52:41;2.47;;;1.52;;
73150;SDS011;61354;50.758;6.106;2023-12-04T14:55:14;2.38;;;1.50;;
73150;SDS011;61354;50.758;6.106;2023-12-04T14:57:51;2.53;;;1.40;;
73150;SDS011;61354;50.758;6.106;2023-12-04T15:00:20;2.28;;;1.30;;
73150;SDS011;61354;50.758;6.106;2023-12-04T15:03:00;2.72;;;1.67;;